createdAt,value
2022-08-19T00:01:33.686Z,61.74
2022-08-19T00:06:32.136Z,61.99
2022-08-19T00:11:26.250Z,61.71
2022-08-19T00:16:25.329Z,62.52
2022-08-19T00:21:20.809Z,62.08
2022-08-19T00:26:14.228Z,62.73
2022-08-19T00:31:08.921Z,62.23
2022-08-19T00:36:09.492Z,62.38
2022-08-19T00:41:06.623Z,61.92
2022-08-19T00:46:00.884Z,62.22
2022-08-19T00:50:55.881Z,62.54
2022-08-19T00:55:52.795Z,61.95
2022-08-19T01:00:48.278Z,61.85
2022-08-19T01:05:43.957Z,62.36
2022-08-19T01:10:54.325Z,61.75
2022-08-19T01:15:59.885Z,61.84
2022-08-19T01:20:56.016Z,62.65
2022-08-19T01:25:53.870Z,63.59
2022-08-19T01:30:51.043Z,62.88
2022-08-19T01:35:45.764Z,62.12
2022-08-19T01:40:41.375Z,62.24
2022-08-19T01:45:36.822Z,62.61
2022-08-19T01:50:31.591Z,62.55
2022-08-19T01:55:25.779Z,62.84
2022-08-19T02:00:22.933Z,63.56
2022-08-19T02:05:25.556Z,62.95
2022-08-19T02:10:22.324Z,62.64
2022-08-19T02:15:15.300Z,62.94
2022-08-19T02:20:12.340Z,64.07
2022-08-19T02:25:07.347Z,64.07
2022-08-19T02:30:01.267Z,63.82
2022-08-19T02:34:55.513Z,64.53
2022-08-19T02:39:51.794Z,62.69
2022-08-19T02:44:45.785Z,63.59
2022-08-19T02:49:40.023Z,64.33
2022-08-19T02:54:33.655Z,65.27
2022-08-19T02:59:28.169Z,63.39
2022-08-19T03:04:22.643Z,61.56
2022-08-19T03:09:17.141Z,62.10
2022-08-19T03:14:12.007Z,62.08
2022-08-19T03:19:07.480Z,62.04
2022-08-19T03:24:05.369Z,61.33
2022-08-19T03:28:59.287Z,61.68
2022-08-19T03:33:53.528Z,61.93
2022-08-19T03:38:49.874Z,61.76
2022-08-19T03:43:54.420Z,61.86
2022-08-19T03:48:49.590Z,62.25
2022-08-19T03:53:43.157Z,61.41
2022-08-19T03:58:37.256Z,61.13
2022-08-19T04:03:31.415Z,60.98
2022-08-19T04:08:25.433Z,60.87
2022-08-19T04:13:19.542Z,60.51
2022-08-19T04:18:12.502Z,60.39
2022-08-19T04:23:06.258Z,60.01
2022-08-19T04:28:00.339Z,59.76
2022-08-19T04:32:55.032Z,59.87
2022-08-19T04:37:48.970Z,59.99
2022-08-19T04:42:42.616Z,59.80
2022-08-19T04:47:49.114Z,59.77
2022-08-19T04:52:52.230Z,59.40
2022-08-19T04:57:46.237Z,59.55
2022-08-19T05:02:40.312Z,59.65
2022-08-19T05:07:34.227Z,59.46
2022-08-19T05:12:33.087Z,59.82
2022-08-19T05:17:32.280Z,58.66
2022-08-19T05:22:35.524Z,58.90
2022-08-19T05:27:30.776Z,59.15
2022-08-19T05:32:25.334Z,57.37
2022-08-19T05:37:19.404Z,57.99
2022-08-19T05:42:14.008Z,57.72
2022-08-19T05:47:10.099Z,58.17
2022-08-19T05:52:09.782Z,58.67
2022-08-19T05:57:03.732Z,58.94
2022-08-19T06:01:58.837Z,58.96
2022-08-19T06:06:54.491Z,58.86
2022-08-19T06:12:07.859Z,58.75
2022-08-19T06:17:06.857Z,58.63
2022-08-19T06:22:02.600Z,58.69
2022-08-19T06:27:01.981Z,56.61
2022-08-19T06:32:02.197Z,54.14
2022-08-19T06:36:57.883Z,54.54
2022-08-19T06:41:56.792Z,55.19
2022-08-19T06:46:53.673Z,55.49
2022-08-19T06:51:50.381Z,55.46
2022-08-19T06:56:47.510Z,55.23
2022-08-19T07:01:48.820Z,55.01
2022-08-19T07:06:43.332Z,54.77
2022-08-19T07:11:38.480Z,54.48
2022-08-19T07:16:31.799Z,53.34
2022-08-19T07:21:29.730Z,53.35
2022-08-19T07:26:27.981Z,53.20
2022-08-19T07:31:24.971Z,53.72
2022-08-19T07:36:21.311Z,54.02
2022-08-19T07:41:23.449Z,54.27
2022-08-19T07:46:18.359Z,54.54
2022-08-19T07:51:12.564Z,54.34
2022-08-19T07:56:09.655Z,54.56
2022-08-19T08:01:04.116Z,54.28
2022-08-19T08:06:16.536Z,54.40
2022-08-19T08:11:10.356Z,54.67
2022-08-19T08:16:04.919Z,54.34
2022-08-19T08:21:04.769Z,54.02
2022-08-19T08:25:59.580Z,54.21
2022-08-19T08:30:53.651Z,54.06
2022-08-19T08:35:47.154Z,53.76
2022-08-19T08:40:54.460Z,53.62
2022-08-19T08:45:54.292Z,53.20
2022-08-19T08:50:52.318Z,52.96
2022-08-19T08:55:47.386Z,52.10
2022-08-19T09:00:53.658Z,52.10
2022-08-19T09:05:59.543Z,52.21
2022-08-19T09:10:56.157Z,52.06
2022-08-19T09:15:56.954Z,51.83
2022-08-19T09:21:10.559Z,51.52
2022-08-19T09:26:16.521Z,51.36
2022-08-19T09:31:09.976Z,51.57
2022-08-19T09:36:09.024Z,51.53
2022-08-19T09:41:07.461Z,51.66
2022-08-19T09:46:02.103Z,51.31
2022-08-19T09:50:55.764Z,51.38
2022-08-19T09:55:49.108Z,51.35
2022-08-19T10:00:43.060Z,51.46
2022-08-19T10:05:55.329Z,52.25
2022-08-19T10:10:50.351Z,53.12
2022-08-19T10:15:47.736Z,53.97
2022-08-19T10:20:43.442Z,53.51
2022-08-19T10:25:38.400Z,54.06
2022-08-19T10:30:32.476Z,54.11
2022-08-19T10:35:31.385Z,53.91
2022-08-19T10:40:36.433Z,54.78
2022-08-19T10:45:30.038Z,56.09
2022-08-19T10:50:41.844Z,54.44
2022-08-19T10:55:53.715Z,54.26
2022-08-19T11:00:54.579Z,53.23
2022-08-19T11:05:50.742Z,53.02
2022-08-19T11:10:46.794Z,53.10
2022-08-19T11:15:44.884Z,53.08
2022-08-19T11:20:39.041Z,51.62
2022-08-19T11:25:32.986Z,51.97
2022-08-19T11:30:26.450Z,52.94
2022-08-19T11:35:21.359Z,51.72
2022-08-19T11:40:15.711Z,51.71
2022-08-19T11:45:11.956Z,52.20
2022-08-19T11:50:07.801Z,53.09
2022-08-19T11:55:01.994Z,53.99
2022-08-19T11:59:55.924Z,53.38
2022-08-19T12:04:50.580Z,52.94
2022-08-19T12:09:44.631Z,53.00
2022-08-19T12:14:39.448Z,52.97
2022-08-19T12:19:32.825Z,52.85
2022-08-19T12:24:26.532Z,53.27
2022-08-19T12:29:26.011Z,54.31
2022-08-19T12:34:24.769Z,53.05
2022-08-19T12:39:19.229Z,53.14
2022-08-19T12:44:13.891Z,52.22
2022-08-19T12:49:17.912Z,53.32
2022-08-19T12:54:22.229Z,52.22
2022-08-19T12:59:19.104Z,51.32
2022-08-19T13:04:12.113Z,51.20
2022-08-19T13:09:05.836Z,50.40
2022-08-19T13:13:59.866Z,49.54
2022-08-19T13:18:54.419Z,50.15
2022-08-19T13:23:48.915Z,49.30
2022-08-19T13:29:02.845Z,49.48
2022-08-19T13:33:57.107Z,49.21
2022-08-19T13:38:51.700Z,48.73
2022-08-19T13:43:45.685Z,48.82
2022-08-19T13:48:40.209Z,48.58
2022-08-19T13:53:34.171Z,48.67
2022-08-19T13:58:27.991Z,48.80
2022-08-19T14:03:21.556Z,49.04
2022-08-19T14:08:20.020Z,49.25
2022-08-19T14:13:16.638Z,49.02
2022-08-19T14:18:11.133Z,50.22
2022-08-19T14:23:04.594Z,50.03
2022-08-19T14:27:58.041Z,49.92
2022-08-19T14:32:52.093Z,50.56
2022-08-19T14:37:47.569Z,50.45
2022-08-19T14:42:40.369Z,50.27
2022-08-19T14:47:34.134Z,50.84
2022-08-19T14:52:27.861Z,50.67
2022-08-19T14:57:21.398Z,51.21
2022-08-19T15:02:33.876Z,50.82
2022-08-19T15:07:29.746Z,51.07
2022-08-19T15:12:24.067Z,50.36
2022-08-19T15:17:18.926Z,50.72
2022-08-19T15:22:12.804Z,50.69
2022-08-19T15:27:07.702Z,50.34
2022-08-19T15:32:01.347Z,50.55
2022-08-19T15:36:56.032Z,50.87
2022-08-19T15:41:50.022Z,51.08
2022-08-19T15:46:46.273Z,51.03
2022-08-19T15:51:43.411Z,50.32
2022-08-19T15:56:57.849Z,50.47
2022-08-19T16:02:10.672Z,49.91
2022-08-19T16:07:09.300Z,50.53
2022-08-19T16:12:05.178Z,50.33
2022-08-19T16:16:59.034Z,50.47
2022-08-19T16:21:55.008Z,50.99
2022-08-19T16:26:50.003Z,51.49
2022-08-19T16:31:46.961Z,47.93
2022-08-19T16:36:42.675Z,48.64
2022-08-19T16:41:37.946Z,49.37
2022-08-19T16:46:32.179Z,49.25
2022-08-19T16:51:27.027Z,49.60
2022-08-19T16:56:20.689Z,49.73
2022-08-19T17:01:14.050Z,49.97
2022-08-19T17:06:29.523Z,49.94
2022-08-19T17:11:24.888Z,50.20
2022-08-19T17:16:22.269Z,50.47
2022-08-19T17:21:15.505Z,50.82
2022-08-19T17:26:09.012Z,50.83
2022-08-19T17:31:10.355Z,50.40
2022-08-19T17:36:05.104Z,50.18
2022-08-19T17:41:05.524Z,50.52
2022-08-19T17:46:03.325Z,50.32
2022-08-19T17:50:57.906Z,50.42
2022-08-19T17:55:52.499Z,50.18
2022-08-19T18:00:53.315Z,50.18
2022-08-19T18:05:48.764Z,50.21
2022-08-19T18:10:42.517Z,50.29
2022-08-19T18:15:36.691Z,50.96
2022-08-19T18:20:34.291Z,51.03
2022-08-19T18:25:28.399Z,51.00
2022-08-19T18:30:22.546Z,50.35
2022-08-19T18:35:19.696Z,50.59
2022-08-19T18:40:34.332Z,50.66
2022-08-19T18:45:46.679Z,51.10
2022-08-19T18:50:44.139Z,51.62
2022-08-19T18:55:37.920Z,51.44
2022-08-19T19:00:32.624Z,51.07
2022-08-19T19:05:28.337Z,50.76
2022-08-19T19:10:21.661Z,51.92
2022-08-19T19:15:15.861Z,51.79
2022-08-19T19:20:10.740Z,51.82
2022-08-19T19:25:04.352Z,51.92
2022-08-19T19:29:58.621Z,52.32
2022-08-19T19:34:52.474Z,52.26
2022-08-19T19:39:48.339Z,52.04
2022-08-19T19:44:47.139Z,51.72
2022-08-19T19:50:03.891Z,53.04
2022-08-19T19:55:00.385Z,54.27
2022-08-19T19:59:55.285Z,54.27
2022-08-19T20:04:49.043Z,54.87
2022-08-19T20:09:58.695Z,54.56
2022-08-19T20:14:53.213Z,54.07
2022-08-19T20:19:46.683Z,54.58
2022-08-19T20:24:43.218Z,55.24
2022-08-19T20:29:38.929Z,55.07
2022-08-19T20:34:34.518Z,55.80
2022-08-19T20:39:27.699Z,56.52
2022-08-19T20:44:21.774Z,56.48
2022-08-19T20:49:15.671Z,56.76
2022-08-19T20:54:09.143Z,56.86
2022-08-19T20:59:04.925Z,56.41
2022-08-19T21:03:58.745Z,56.66
2022-08-19T21:08:52.628Z,56.74
2022-08-19T21:13:47.036Z,56.04
2022-08-19T21:18:40.723Z,54.86
2022-08-19T21:23:34.460Z,55.44
2022-08-19T21:28:29.976Z,56.22
2022-08-19T21:33:34.879Z,58.18
2022-08-19T21:38:28.755Z,58.47
2022-08-19T21:43:22.958Z,58.57
2022-08-19T21:48:16.792Z,58.45
2022-08-19T21:53:11.318Z,58.38
2022-08-19T21:58:07.316Z,58.36
2022-08-19T22:03:02.297Z,58.12
2022-08-19T22:07:59.833Z,58.00
2022-08-19T22:12:57.701Z,57.91
2022-08-19T22:17:52.221Z,57.88
2022-08-19T22:22:56.941Z,57.67
2022-08-19T22:28:00.490Z,57.61
2022-08-19T22:33:01.462Z,57.42
2022-08-19T22:37:55.826Z,57.01
2022-08-19T22:42:49.437Z,57.06
2022-08-19T22:47:42.886Z,57.69
2022-08-19T22:52:36.053Z,56.50
2022-08-19T22:57:29.460Z,56.93
2022-08-19T23:02:28.629Z,57.08
2022-08-19T23:07:23.850Z,56.43
2022-08-19T23:12:17.684Z,56.86
2022-08-19T23:17:11.608Z,56.16
2022-08-19T23:22:06.008Z,55.75
2022-08-19T23:27:18.295Z,54.11
2022-08-19T23:32:12.279Z,53.92
2022-08-19T23:37:09.395Z,53.32
2022-08-19T23:42:03.190Z,53.21
2022-08-19T23:46:59.066Z,53.80
2022-08-19T23:51:58.082Z,53.88
2022-08-19T23:56:52.308Z,54.45
